createdAt,value
2018-11-13T00:00:18.449Z,10.30
2018-11-13T00:02:46.741Z,10.30
2018-11-13T00:05:15.051Z,10.30
2018-11-13T00:07:43.669Z,10.30
2018-11-13T00:10:12.508Z,10.30
2018-11-13T00:12:40.953Z,10.20
2018-11-13T00:15:09.279Z,10.20
2018-11-13T00:17:37.860Z,10.20
2018-11-13T00:20:08.745Z,10.10
2018-11-13T00:22:36.974Z,10.10
2018-11-13T00:25:06.429Z,10.10
2018-11-13T00:27:34.735Z,10.10
2018-11-13T00:30:02.963Z,10.10
2018-11-13T00:32:31.215Z,10.10
2018-11-13T00:34:59.577Z,10.10
2018-11-13T00:37:27.817Z,10.10
2018-11-13T00:39:56.063Z,10.00
2018-11-13T00:42:24.402Z,10.00
2018-11-13T00:44:52.661Z,10.10
2018-11-13T00:47:20.993Z,10.10
2018-11-13T00:49:49.240Z,10.10
2018-11-13T00:52:17.518Z,10.10
2018-11-13T00:54:45.890Z,10.10
2018-11-13T00:57:14.365Z,10.20
2018-11-13T00:59:42.890Z,10.20
2018-11-13T01:02:11.123Z,10.20
2018-11-13T01:04:39.337Z,10.20
2018-11-13T01:07:07.649Z,10.20
2018-11-13T01:09:35.973Z,10.10
2018-11-13T01:12:04.185Z,10.10
2018-11-13T01:14:32.478Z,10.10
2018-11-13T01:17:00.693Z,10.10
2018-11-13T01:19:29.233Z,10.10
2018-11-13T01:21:57.481Z,10.10
2018-11-13T01:24:25.785Z,10.10
2018-11-13T01:26:53.988Z,10.10
2018-11-13T01:29:22.216Z,10.10
2018-11-13T01:31:50.487Z,10.00
2018-11-13T01:34:18.726Z,10.00
2018-11-13T01:36:46.984Z,10.00
2018-11-13T01:39:15.253Z,10.00
2018-11-13T01:41:43.508Z,10.00
2018-11-13T01:44:11.737Z,10.00
2018-11-13T01:46:39.989Z,10.00
2018-11-13T01:49:08.206Z,9.90
2018-11-13T01:51:36.457Z,9.90
2018-11-13T01:54:04.778Z,9.90
2018-11-13T01:56:33.017Z,9.80
2018-11-13T01:59:01.231Z,9.80
2018-11-13T02:01:29.511Z,9.80
2018-11-13T02:03:57.886Z,9.70
2018-11-13T02:06:26.196Z,9.70
2018-11-13T02:08:54.421Z,9.60
2018-11-13T02:11:22.654Z,9.60
2018-11-13T02:13:50.869Z,9.60
2018-11-13T02:16:19.193Z,9.60
2018-11-13T02:18:47.393Z,9.50
2018-11-13T02:21:15.657Z,9.50
2018-11-13T02:23:43.918Z,9.60
2018-11-13T02:26:12.329Z,9.60
2018-11-13T02:28:40.630Z,9.60
2018-11-13T02:31:08.888Z,9.60
2018-11-13T02:33:37.122Z,9.60
2018-11-13T02:42:49.589Z,9.60
2018-11-13T02:45:19.136Z,9.60
2018-11-13T02:47:47.514Z,9.60
2018-11-13T02:50:16.901Z,9.50
2018-11-13T02:52:45.129Z,9.50
2018-11-13T02:55:13.679Z,9.60
2018-11-13T02:57:42.472Z,9.60
2018-11-13T03:00:12.379Z,9.60
2018-11-13T03:02:40.612Z,9.60
2018-11-13T03:05:11.031Z,9.60
2018-11-13T03:07:39.880Z,9.70
2018-11-13T03:10:09.615Z,9.70
2018-11-13T03:14:07.307Z,9.70
2018-11-13T03:16:35.529Z,9.70
2018-11-13T03:19:03.788Z,9.80
2018-11-13T03:21:31.974Z,9.80
2018-11-13T03:24:00.200Z,9.80
2018-11-13T03:26:28.433Z,9.80
2018-11-13T03:28:56.665Z,9.80
2018-11-13T03:31:25.298Z,9.90
2018-11-13T03:33:53.442Z,9.90
2018-11-13T03:36:21.706Z,9.90
2018-11-13T03:38:49.959Z,10.00
2018-11-13T03:41:18.185Z,10.00
2018-11-13T03:43:46.448Z,10.00
2018-11-13T03:46:14.707Z,10.00
2018-11-13T03:48:42.981Z,10.00
2018-11-13T03:51:11.257Z,10.00
2018-11-13T03:53:39.661Z,10.00
2018-11-13T03:56:07.912Z,10.00
2018-11-13T03:58:36.153Z,10.00
2018-11-13T04:01:04.422Z,10.10
2018-11-13T04:03:32.723Z,10.10
2018-11-13T04:06:00.950Z,10.10
2018-11-13T04:08:29.193Z,10.10
2018-11-13T04:10:57.412Z,10.10
2018-11-13T04:13:25.633Z,10.10
2018-11-13T04:15:54.157Z,10.10
2018-11-13T04:18:22.393Z,10.10
2018-11-13T04:20:50.642Z,10.10
2018-11-13T04:23:18.861Z,10.00
2018-11-13T04:25:47.124Z,10.00
2018-11-13T04:28:15.394Z,10.00
2018-11-13T04:30:43.731Z,10.00
2018-11-13T04:33:11.854Z,10.00
2018-11-13T04:35:40.105Z,10.00
2018-11-13T04:38:08.699Z,10.00
2018-11-13T04:40:36.913Z,10.10
2018-11-13T04:43:05.464Z,10.10
2018-11-13T04:45:33.785Z,10.00
2018-11-13T04:48:01.995Z,10.00
2018-11-13T04:50:30.226Z,9.90
2018-11-13T04:52:58.442Z,9.90
2018-11-13T04:55:26.662Z,9.80
2018-11-13T04:57:54.934Z,9.80
2018-11-13T05:00:24.148Z,9.70
2018-11-13T05:02:52.473Z,9.70
2018-11-13T05:05:21.672Z,9.60
2018-11-13T05:07:52.325Z,9.60
2018-11-13T05:10:20.701Z,9.60
2018-11-13T05:12:49.258Z,9.60
2018-11-13T05:15:17.491Z,9.60
2018-11-13T05:17:46.212Z,9.60
2018-11-13T05:20:15.293Z,9.60
2018-11-13T05:22:43.744Z,9.60
2018-11-13T05:25:14.124Z,9.60
2018-11-13T05:27:42.706Z,9.60
2018-11-13T05:30:13.202Z,9.70
2018-11-13T05:32:41.433Z,9.60
2018-11-13T05:35:11.246Z,9.60
2018-11-13T05:37:40.201Z,9.60
2018-11-13T05:40:10.977Z,9.50
2018-11-13T05:42:39.513Z,9.50
2018-11-13T05:45:09.329Z,9.40
2018-11-13T05:47:37.958Z,9.40
2018-11-13T05:50:07.080Z,9.40
2018-11-13T05:52:35.322Z,9.30
2018-11-13T05:55:03.541Z,9.20
2018-11-13T05:57:31.753Z,9.10
2018-11-13T06:00:00.052Z,9.10
2018-11-13T06:02:28.203Z,9.00
2018-11-13T06:04:56.629Z,9.00
2018-11-13T06:07:24.836Z,9.10
2018-11-13T06:09:53.036Z,9.00
2018-11-13T06:12:21.264Z,9.00
2018-11-13T06:14:49.557Z,9.00
2018-11-13T06:17:19.296Z,9.10
2018-11-13T06:19:47.604Z,9.20
2018-11-13T06:22:15.777Z,9.10
2018-11-13T06:24:44.858Z,9.10
2018-11-13T06:27:13.281Z,9.10
2018-11-13T06:29:41.528Z,9.10
2018-11-13T06:32:10.057Z,9.10
2018-11-13T06:34:38.525Z,9.10
2018-11-13T06:37:06.778Z,9.10
2018-11-13T06:39:34.977Z,9.10
2018-11-13T06:42:03.265Z,9.10
2018-11-13T06:44:31.517Z,9.20
2018-11-13T06:46:59.770Z,9.20
2018-11-13T06:49:28.176Z,9.20
2018-11-13T06:51:56.560Z,9.20
2018-11-13T06:54:36.081Z,9.30
2018-11-13T06:57:04.397Z,9.40
2018-11-13T06:59:32.750Z,9.40
2018-11-13T07:02:01.010Z,9.50
2018-11-13T07:04:29.373Z,9.50
2018-11-13T07:06:57.621Z,9.50
2018-11-13T07:09:25.862Z,9.40
2018-11-13T07:11:54.127Z,9.40
2018-11-13T07:14:22.394Z,9.50
2018-11-13T07:16:50.609Z,9.60
2018-11-13T07:19:18.886Z,9.60
2018-11-13T07:21:47.210Z,9.70
2018-11-13T07:24:15.688Z,9.80
2018-11-13T07:26:43.900Z,9.90
2018-11-13T07:29:12.204Z,10.00
2018-11-13T07:31:40.834Z,10.10
2018-11-13T07:34:09.228Z,10.20
2018-11-13T07:36:37.611Z,10.30
2018-11-13T07:39:08.714Z,10.40
2018-11-13T07:41:37.030Z,10.50
2018-11-13T07:44:05.535Z,10.60
2018-11-13T07:46:33.857Z,10.70
2018-11-13T07:49:02.355Z,10.90
2018-11-13T07:51:30.687Z,10.90
2018-11-13T07:53:58.995Z,11.00
2018-11-13T07:56:27.263Z,11.10
2018-11-13T07:58:55.565Z,11.10
2018-11-13T08:01:23.831Z,11.20
2018-11-13T08:03:52.125Z,11.30
2018-11-13T08:06:20.462Z,11.40
2018-11-13T08:08:48.656Z,11.50
2018-11-13T08:11:16.946Z,11.70
2018-11-13T08:13:45.248Z,11.80
2018-11-13T08:16:13.565Z,11.90
2018-11-13T08:18:41.928Z,12.00
2018-11-13T08:21:10.207Z,12.10
2018-11-13T08:23:38.450Z,12.20
2018-11-13T08:26:07.117Z,12.30
2018-11-13T08:28:35.371Z,12.40
2018-11-13T08:31:03.900Z,12.50
2018-11-13T08:33:32.203Z,12.70
2018-11-13T08:36:06.332Z,13.00
2018-11-13T08:38:34.678Z,13.20
2018-11-13T08:41:03.068Z,13.50
2018-11-13T08:45:00.770Z,13.70
2018-11-13T08:47:29.033Z,13.90
2018-11-13T08:49:57.294Z,14.30
2018-11-13T08:52:25.557Z,14.50
2018-11-13T08:54:53.843Z,14.60
2018-11-13T08:57:22.317Z,14.80
2018-11-13T08:59:50.578Z,15.00
2018-11-13T09:02:18.873Z,15.20
2018-11-13T09:04:47.115Z,15.40
2018-11-13T09:07:15.476Z,15.60
2018-11-13T09:09:43.977Z,15.70
2018-11-13T09:12:13.003Z,15.70
2018-11-13T09:14:41.502Z,15.90
2018-11-13T09:17:10.274Z,16.00
2018-11-13T09:19:38.850Z,16.10
2018-11-13T09:22:07.019Z,16.20
2018-11-13T09:24:35.306Z,16.30
2018-11-13T09:27:03.670Z,16.40
2018-11-13T09:29:31.941Z,16.50
2018-11-13T09:32:00.222Z,16.70
2018-11-13T09:34:28.434Z,16.90
2018-11-13T09:36:57.018Z,17.10
2018-11-13T09:39:25.328Z,17.20
2018-11-13T09:41:53.741Z,17.40
2018-11-13T09:44:22.283Z,17.70
2018-11-13T09:46:50.770Z,17.90
2018-11-13T09:49:19.567Z,18.00
2018-11-13T09:51:47.891Z,18.10
2018-11-13T09:54:16.143Z,17.80
2018-11-13T09:56:44.438Z,17.80
2018-11-13T09:59:12.763Z,17.70
2018-11-13T10:01:41.479Z,17.80
2018-11-13T10:04:10.059Z,17.90
2018-11-13T10:06:37.785Z,17.60
2018-11-13T10:09:10.379Z,17.30
2018-11-13T10:11:38.666Z,17.20
2018-11-13T10:14:07.066Z,17.30
2018-11-13T10:16:35.874Z,17.50
2018-11-13T10:19:04.505Z,17.80
2018-11-13T10:21:34.091Z,18.30
2018-11-13T10:24:02.701Z,18.20
2018-11-13T10:26:30.952Z,17.70
2018-11-13T10:28:59.654Z,17.40
2018-11-13T10:31:28.450Z,17.40
2018-11-13T10:33:56.699Z,17.50
2018-11-13T10:36:25.040Z,17.80
2018-11-13T10:38:53.377Z,18.00
2018-11-13T10:41:21.875Z,18.40
2018-11-13T10:43:50.238Z,18.30
2018-11-13T10:46:18.671Z,18.00
2018-11-13T10:48:47.821Z,17.80
2018-11-13T10:51:16.036Z,17.80
2018-11-13T10:53:44.377Z,18.10
2018-11-13T10:56:12.659Z,18.30
2018-11-13T10:58:41.052Z,18.20
2018-11-13T11:01:14.759Z,17.70
2018-11-13T11:03:54.211Z,17.30
2018-11-13T11:06:22.629Z,17.20
2018-11-13T11:08:50.963Z,16.90
2018-11-13T11:11:19.187Z,16.70
2018-11-13T11:13:47.707Z,16.40
2018-11-13T11:16:15.916Z,16.00
2018-11-13T11:18:44.334Z,15.70
2018-11-13T11:21:12.546Z,15.40
2018-11-13T11:23:41.091Z,15.20
2018-11-13T11:26:09.573Z,15.10
2018-11-13T11:28:38.095Z,15.00
2018-11-13T11:31:06.599Z,15.00
2018-11-13T11:33:35.078Z,14.90
2018-11-13T11:36:03.888Z,14.80
2018-11-13T11:38:32.511Z,14.70
2018-11-13T11:41:00.986Z,14.60
2018-11-13T11:43:29.456Z,14.50
2018-11-13T11:45:57.716Z,14.40
2018-11-13T11:48:26.007Z,14.40
2018-11-13T11:50:54.411Z,14.40
2018-11-13T11:53:22.651Z,14.40
2018-11-13T11:55:51.194Z,14.40
2018-11-13T11:58:19.511Z,14.40
2018-11-13T12:00:48.179Z,14.40
2018-11-13T12:03:16.382Z,14.30
2018-11-13T12:05:44.629Z,14.20
2018-11-13T12:08:13.043Z,14.10
2018-11-13T12:10:41.282Z,14.00
2018-11-13T12:13:09.725Z,13.90
2018-11-13T12:15:37.981Z,14.00
2018-11-13T12:18:06.660Z,13.90
2018-11-13T12:20:34.932Z,14.00
2018-11-13T12:23:03.173Z,14.10
2018-11-13T12:25:31.427Z,14.20
2018-11-13T12:27:59.676Z,14.40
2018-11-13T12:30:27.906Z,14.40
2018-11-13T12:32:56.180Z,14.50
2018-11-13T12:35:24.623Z,14.50
2018-11-13T12:37:52.984Z,14.40
2018-11-13T12:40:22.545Z,14.40
2018-11-13T12:42:51.141Z,14.30
2018-11-13T12:45:19.585Z,14.30
2018-11-13T12:47:47.871Z,14.40
2018-11-13T12:50:17.335Z,14.40
2018-11-13T12:52:45.602Z,14.40
2018-11-13T12:55:19.401Z,14.30
2018-11-13T12:57:47.734Z,14.20
2018-11-13T13:00:20.943Z,14.20
2018-11-13T13:02:49.201Z,14.20
2018-11-13T13:05:17.588Z,14.10
2018-11-13T13:07:45.959Z,14.10
2018-11-13T13:10:15.306Z,14.10
2018-11-13T13:12:43.643Z,14.10
2018-11-13T13:15:14.022Z,14.10
2018-11-13T13:17:42.622Z,14.10
2018-11-13T13:20:16.312Z,14.00
2018-11-13T13:22:45.973Z,13.90
2018-11-13T13:25:15.499Z,13.90
2018-11-13T13:27:43.715Z,13.90
2018-11-13T13:30:14.629Z,13.90
2018-11-13T13:32:42.863Z,13.90
2018-11-13T13:35:20.046Z,13.90
2018-11-13T13:37:48.343Z,13.90
2018-11-13T13:40:16.737Z,13.90
2018-11-13T13:42:45.002Z,13.90
2018-11-13T13:45:13.214Z,13.90
2018-11-13T13:47:41.483Z,13.80
2018-11-13T13:50:09.808Z,13.80
2018-11-13T13:52:38.070Z,13.80
2018-11-13T13:55:06.446Z,13.70
2018-11-13T13:57:54.971Z,13.70
2018-11-13T14:00:23.404Z,13.70
2018-11-13T14:02:51.510Z,13.60
2018-11-13T14:05:20.362Z,13.60
2018-11-13T14:07:48.680Z,13.60
2018-11-13T14:10:17.148Z,13.60
2018-11-13T14:12:45.363Z,13.60
2018-11-13T14:15:13.997Z,13.60
2018-11-13T14:17:42.573Z,13.60
2018-11-13T14:20:13.883Z,13.60
2018-11-13T14:22:42.168Z,13.60
2018-11-13T14:25:11.295Z,13.50
2018-11-13T14:27:39.776Z,13.50
2018-11-13T14:30:12.490Z,13.50
2018-11-13T14:32:40.841Z,13.50
2018-11-13T14:35:09.183Z,13.40
2018-11-13T14:37:38.306Z,13.40
2018-11-13T14:40:11.317Z,13.30
2018-11-13T14:42:39.839Z,13.30
2018-11-13T14:45:08.206Z,13.30
2018-11-13T14:47:36.453Z,13.30
2018-11-13T14:50:07.237Z,13.30
2018-11-13T14:52:35.566Z,13.30
2018-11-13T14:55:03.911Z,13.30
2018-11-13T14:57:32.201Z,13.30
2018-11-13T15:00:00.447Z,13.30
2018-11-13T15:02:29.024Z,13.30
2018-11-13T15:04:57.263Z,13.30
2018-11-13T15:07:27.165Z,13.20
2018-11-13T15:09:53.753Z,13.30
2018-11-13T15:12:22.034Z,13.30
2018-11-13T15:14:50.273Z,13.30
2018-11-13T15:17:18.581Z,13.20
2018-11-13T15:19:46.793Z,13.30
2018-11-13T15:22:15.175Z,13.20
2018-11-13T15:24:43.422Z,13.20
2018-11-13T15:27:11.695Z,13.20
2018-11-13T15:29:39.953Z,13.10
2018-11-13T15:32:08.604Z,13.10
2018-11-13T15:34:36.894Z,13.10
2018-11-13T15:37:05.367Z,13.00
2018-11-13T15:39:33.615Z,13.00
2018-11-13T15:42:01.924Z,13.00
2018-11-13T15:44:30.259Z,13.00
2018-11-13T15:46:58.555Z,13.00
2018-11-13T15:49:26.876Z,13.00
2018-11-13T15:51:55.596Z,13.00
2018-11-13T15:54:23.758Z,13.00
2018-11-13T15:56:52.006Z,13.00
2018-11-13T15:59:20.498Z,13.10
2018-11-13T16:01:48.742Z,13.00
2018-11-13T16:04:17.237Z,13.00
2018-11-13T16:06:45.715Z,13.00
2018-11-13T16:09:14.084Z,13.00
2018-11-13T16:17:28.710Z,12.90
2018-11-13T16:19:57.038Z,12.80
2018-11-13T16:22:25.268Z,12.80
2018-11-13T16:24:53.537Z,12.70
2018-11-13T16:27:21.841Z,12.70
2018-11-13T16:29:50.270Z,12.70
2018-11-13T16:32:18.467Z,12.70
2018-11-13T16:34:46.684Z,12.70
2018-11-13T16:37:17.329Z,12.60
2018-11-13T16:39:45.560Z,12.60
2018-11-13T16:42:13.848Z,12.60
2018-11-13T16:44:42.054Z,12.60
2018-11-13T16:47:10.357Z,12.60
2018-11-13T16:49:42.897Z,12.50
2018-11-13T16:52:14.821Z,12.50
2018-11-13T16:54:49.608Z,12.60
2018-11-13T16:57:17.659Z,12.60
2018-11-13T16:59:47.196Z,12.60
2018-11-13T17:02:17.947Z,12.60
2018-11-13T17:04:47.667Z,12.60
2018-11-13T17:07:15.983Z,12.60
2018-11-13T17:09:44.204Z,12.70
2018-11-13T17:12:12.468Z,12.70
2018-11-13T17:14:40.733Z,12.70
2018-11-13T17:17:08.973Z,12.80
2018-11-13T17:19:37.253Z,12.80
2018-11-13T17:22:09.903Z,12.80
2018-11-13T17:24:38.311Z,12.90
2018-11-13T17:27:10.603Z,12.90
2018-11-13T17:29:38.802Z,12.90
2018-11-13T17:32:07.064Z,12.90
2018-11-13T17:34:35.268Z,12.90
2018-11-13T17:37:03.573Z,12.80
2018-11-13T17:39:31.841Z,12.80
2018-11-13T17:42:00.133Z,12.80
2018-11-13T17:44:28.478Z,12.80
2018-11-13T17:46:56.741Z,12.80
2018-11-13T17:49:25.047Z,12.80
2018-11-13T17:51:53.346Z,12.80
2018-11-13T17:54:23.602Z,12.80
2018-11-13T17:56:49.946Z,12.70
2018-11-13T17:59:18.181Z,12.70
2018-11-13T18:01:46.441Z,12.60
2018-11-13T18:04:14.694Z,12.50
2018-11-13T18:06:42.947Z,12.40
2018-11-13T18:09:13.054Z,12.30
2018-11-13T18:11:41.319Z,12.30
2018-11-13T18:14:09.923Z,12.20
2018-11-13T18:16:38.129Z,12.20
2018-11-13T18:20:36.954Z,12.10
2018-11-13T18:23:05.818Z,12.10
2018-11-13T18:25:34.148Z,11.90
2018-11-13T18:28:03.026Z,11.90
2018-11-13T18:30:35.392Z,11.80
2018-11-13T18:33:04.289Z,11.70
2018-11-13T18:35:33.794Z,11.60
2018-11-13T18:38:03.530Z,11.50
2018-11-13T18:40:31.644Z,11.50
2018-11-13T18:43:00.983Z,11.40
2018-11-13T18:45:31.039Z,11.30
2018-11-13T18:47:59.418Z,11.30
2018-11-13T18:50:30.937Z,11.30
2018-11-13T18:52:59.238Z,11.30
2018-11-13T18:55:27.706Z,11.20
2018-11-13T18:57:56.130Z,11.20
2018-11-13T19:00:25.825Z,11.10
2018-11-13T19:02:54.191Z,11.10
2018-11-13T19:05:23.089Z,11.00
2018-11-13T19:07:51.366Z,11.00
2018-11-13T19:10:29.014Z,11.00
2018-11-13T19:12:58.158Z,11.00
2018-11-13T19:15:26.540Z,10.90
2018-11-13T19:17:55.088Z,10.90
2018-11-13T19:20:24.590Z,10.90
2018-11-13T19:22:52.818Z,10.90
2018-11-13T19:25:25.352Z,10.80
2018-11-13T19:27:54.441Z,10.80
2018-11-13T19:30:22.846Z,10.80
2018-11-13T19:32:51.142Z,10.80
2018-11-13T19:35:20.132Z,10.70
2018-11-13T19:37:48.310Z,10.70
2018-11-13T19:40:18.407Z,10.70
2018-11-13T19:42:47.508Z,10.70
2018-11-13T19:45:15.985Z,10.60
2018-11-13T19:47:44.214Z,10.60
2018-11-13T19:50:14.276Z,10.60
2018-11-13T19:52:42.563Z,10.50
2018-11-13T19:55:12.147Z,10.50
2018-11-13T19:57:41.121Z,10.50
2018-11-13T20:00:12.415Z,10.50
2018-11-13T20:02:40.692Z,10.50
2018-11-13T20:05:10.338Z,10.40
2018-11-13T20:07:38.875Z,10.40
2018-11-13T20:10:10.886Z,10.40
2018-11-13T20:12:39.235Z,10.40
2018-11-13T20:15:08.741Z,10.40
2018-11-13T20:17:37.611Z,10.30
2018-11-13T20:20:09.805Z,10.30
2018-11-13T20:22:38.319Z,10.30
2018-11-13T20:25:08.810Z,10.30
2018-11-13T20:27:37.805Z,10.30
2018-11-13T20:30:08.549Z,10.20
2018-11-13T20:32:37.038Z,10.20
2018-11-13T20:35:06.257Z,10.10
2018-11-13T20:37:34.827Z,10.10
2018-11-13T20:40:03.489Z,10.10
2018-11-13T20:42:31.970Z,10.00
2018-11-13T20:45:00.236Z,10.00
2018-11-13T20:47:28.742Z,10.00
2018-11-13T20:49:57.152Z,10.00
2018-11-13T20:52:25.561Z,10.00
2018-11-13T20:54:53.819Z,10.00
2018-11-13T20:57:22.039Z,10.00
2018-11-13T20:59:50.699Z,10.00
2018-11-13T21:02:18.974Z,9.90
2018-11-13T21:06:16.694Z,9.90
2018-11-13T21:08:45.017Z,9.90
2018-11-13T21:11:13.174Z,9.90
2018-11-13T21:13:41.449Z,9.80
2018-11-13T21:16:09.918Z,9.80
2018-11-13T21:18:38.141Z,9.80
2018-11-13T21:21:06.557Z,9.80
2018-11-13T21:23:34.867Z,9.70
2018-11-13T21:26:03.022Z,9.70
2018-11-13T21:28:31.288Z,9.70
2018-11-13T21:30:59.546Z,9.70
2018-11-13T21:33:27.822Z,9.70
2018-11-13T21:35:56.097Z,9.70
2018-11-13T21:38:24.366Z,9.60
2018-11-13T21:40:52.672Z,9.60
2018-11-13T21:43:21.062Z,9.60
2018-11-13T21:45:49.294Z,9.60
2018-11-13T21:48:17.556Z,9.50
2018-11-13T21:50:45.790Z,9.50
2018-11-13T21:53:14.026Z,9.50
2018-11-13T21:55:42.349Z,9.40
2018-11-13T21:58:10.513Z,9.40
2018-11-13T22:00:38.764Z,9.40
2018-11-13T22:03:08.094Z,9.40
2018-11-13T22:05:37.117Z,9.40
2018-11-13T22:08:05.219Z,9.30
2018-11-13T22:10:33.427Z,9.30
2018-11-13T22:13:01.706Z,9.20
2018-11-13T22:15:30.725Z,9.20
2018-11-13T22:17:59.264Z,9.20
2018-11-13T22:20:27.345Z,9.20
2018-11-13T22:22:56.879Z,9.20
2018-11-13T22:25:25.734Z,9.20
2018-11-13T22:27:55.198Z,9.10
2018-11-13T22:30:24.670Z,9.10
2018-11-13T22:32:52.908Z,9.10
2018-11-13T22:35:21.894Z,9.00
2018-11-13T22:37:50.161Z,9.00
2018-11-13T22:40:19.557Z,9.00
2018-11-13T22:42:48.085Z,8.90
2018-11-13T22:45:21.405Z,8.90
2018-11-13T22:47:49.650Z,8.90
2018-11-13T22:50:20.290Z,8.80
2018-11-13T22:52:48.720Z,8.80
2018-11-13T22:55:17.315Z,8.70
2018-11-13T22:57:46.382Z,8.70
2018-11-13T23:00:19.653Z,8.70
2018-11-13T23:02:49.488Z,8.70
2018-11-13T23:05:17.599Z,8.60
2018-11-13T23:07:45.906Z,8.60
2018-11-13T23:10:14.816Z,8.60
2018-11-13T23:12:43.522Z,8.60
2018-11-13T23:15:16.538Z,8.60
2018-11-13T23:17:45.057Z,8.60
2018-11-13T23:20:14.613Z,8.60
2018-11-13T23:22:42.844Z,8.60
2018-11-13T23:25:12.442Z,8.50
2018-11-13T23:27:41.150Z,8.40
2018-11-13T23:30:11.878Z,8.30
2018-11-13T23:32:40.101Z,8.20
2018-11-13T23:35:09.479Z,8.10
2018-11-13T23:37:37.753Z,8.00
2018-11-13T23:40:07.589Z,8.00
2018-11-13T23:42:35.807Z,8.00
2018-11-13T23:45:04.107Z,7.90
2018-11-13T23:47:32.385Z,7.90
2018-11-13T23:50:00.779Z,7.90
2018-11-13T23:52:29.065Z,7.90
2018-11-13T23:54:57.343Z,7.90
2018-11-13T23:57:25.611Z,7.90
2018-11-13T23:59:54.010Z,7.90
